Time;durP1;ratioP1;P1;durP2;ratioP2;P2;SDS_P1;SDS_P2;PMS_P1;PMS_P2;Temp;Humidity;BMP_temperature;BMP_pressure;BME280_temperature;BME280_humidity;BME280_pressure;Samples;Min_cycle;Max_cycle;Signal;HPM_P1;HPM_P2
2022/04/05 00:00:28;;;;;;;0.80;0.80;;;5.00;99.90;;;;;;5032298;28;20204;-77
2022/04/05 00:02:57;;;;;;;0.80;0.80;;;5.00;1.00;;;;;;5031948;28;20186;-77
2022/04/05 00:05:23;;;;;;;0.80;0.80;;;5.00;1.00;;;;;;5031872;28;20270;-77
2022/04/05 00:07:49;;;;;;;0.77;0.77;;;5.00;1.00;;;;;;5032158;28;20256;-78
2022/04/05 00:10:14;;;;;;;0.80;0.80;;;5.00;1.00;;;;;;5031995;28;20685;-77
2022/04/05 00:12:40;;;;;;;0.90;0.90;;;5.00;1.00;;;;;;5032088;28;20254;-77
2022/04/05 00:15:09;;;;;;;0.80;0.80;;;5.00;1.00;;;;;;5031595;28;20223;-79
2022/04/05 00:17:35;;;;;;;0.90;0.90;;;5.00;1.00;;;;;;5032114;28;20180;-78
2022/04/05 00:20:13;;;;;;;0.80;0.80;;;5.00;1.00;;;;;;5031099;28;20200;-77
2022/04/05 00:22:38;;;;;;;0.90;0.90;;;5.00;1.00;;;;;;5033151;28;20207;-78
2022/04/05 00:25:05;;;;;;;0.80;0.80;;;5.00;1.00;;;;;;5032720;28;20633;-78
2022/04/05 00:27:30;;;;;;;0.80;0.80;;;5.00;1.00;;;;;;5032706;28;20218;-78
2022/04/05 00:29:56;;;;;;;0.80;0.80;;;5.00;1.00;;;;;;5031890;28;20239;-77
2022/04/05 00:32:21;;;;;;;0.70;0.70;;;5.00;1.00;;;;;;5032137;28;20230;-78
2022/04/05 00:34:47;;;;;;;0.80;0.80;;;5.00;1.00;;;;;;5031974;28;20234;-79
2022/04/05 00:37:12;;;;;;;0.70;0.70;;;5.10;1.00;;;;;;5032122;28;20519;-77
2022/04/05 00:39:38;;;;;;;0.80;0.80;;;5.10;1.00;;;;;;5154103;22;20687;-76
2022/04/05 00:42:04;;;;;;;0.70;0.70;;;5.10;1.00;;;;;;5071037;28;20194;-75
2022/04/05 00:44:30;;;;;;;0.80;0.80;;;5.10;99.90;;;;;;5056662;28;20179;-74
2022/04/05 00:46:58;;;;;;;0.80;0.80;;;5.10;89.80;;;;;;5071386;28;20706;-74
2022/04/05 00:49:31;;;;;;;0.70;0.70;;;5.10;99.90;;;;;;5070837;28;20622;-76
2022/04/05 00:51:58;;;;;;;0.90;0.90;;;5.20;99.90;;;;;;5071313;28;20182;-74
2022/04/05 00:54:25;;;;;;;0.80;0.80;;;5.20;99.90;;;;;;5071311;28;20257;-73
2022/04/05 00:56:53;;;;;;;0.80;0.80;;;5.20;1.00;;;;;;5071176;28;20269;-72
2022/04/05 00:59:19;;;;;;;0.80;0.80;;;5.20;99.90;;;;;;5070728;28;20185;-73
2022/04/05 01:01:46;;;;;;;1.00;1.00;;;5.20;99.90;;;;;;5070417;28;20667;-73
2022/04/05 01:04:12;;;;;;;0.80;0.80;;;5.20;99.90;;;;;;5071200;28;20186;-72
2022/04/05 01:06:45;;;;;;;0.80;0.80;;;5.20;99.90;;;;;;5071000;28;20193;-72
2022/04/05 01:09:11;;;;;;;0.80;0.80;;;5.20;99.90;;;;;;5070306;28;20242;-73
2022/04/05 01:11:37;;;;;;;0.80;0.80;;;5.30;6.80;;;;;;5070905;28;20277;-73
2022/04/05 01:14:04;;;;;;;0.73;0.73;;;5.20;99.90;;;;;;5070962;28;20677;-72
2022/04/05 01:16:30;;;;;;;0.83;0.83;;;5.30;99.90;;;;;;5070780;28;20183;-73
2022/04/05 01:18:56;;;;;;;0.70;0.70;;;5.30;53.20;;;;;;5070585;28;20332;-72
2022/04/05 01:21:22;;;;;;;0.80;0.80;;;5.30;99.90;;;;;;5071031;28;20252;-72
2022/04/05 01:24:09;;;;;;;0.90;0.90;;;5.30;99.90;;;;;;5070821;28;20178;-72
2022/04/05 01:26:38;;;;;;;0.80;0.80;;;5.30;99.90;;;;;;5067920;28;20209;-72
2022/04/05 01:29:04;;;;;;;0.87;0.87;;;5.30;99.90;;;;;;5070221;28;20658;-71
2022/04/05 01:31:30;;;;;;;0.80;0.80;;;5.30;12.80;;;;;;5070731;28;20207;-71
2022/04/05 01:33:57;;;;;;;0.80;0.80;;;5.30;1.00;;;;;;5070916;28;20214;-71
2022/04/05 01:36:22;;;;;;;0.80;0.80;;;5.30;1.00;;;;;;5070575;28;20643;-73
2022/04/05 01:38:48;;;;;;;0.80;0.80;;;5.30;1.00;;;;;;5070398;28;20194;-73
2022/04/05 01:41:13;;;;;;;0.70;0.70;;;5.30;99.90;;;;;;5070155;28;20194;-72
2022/04/05 01:43:40;;;;;;;0.83;0.83;;;5.30;68.30;;;;;;5070582;28;20189;-72
2022/04/05 01:46:06;;;;;;;0.73;0.73;;;5.30;99.90;;;;;;5070846;28;20228;-72
2022/04/05 01:48:32;;;;;;;0.80;0.80;;;5.30;99.90;;;;;;5070787;28;20190;-72
2022/04/05 01:50:57;;;;;;;0.80;0.80;;;5.20;1.00;;;;;;5073801;28;20252;-72
2022/04/05 01:53:23;;;;;;;0.80;0.80;;;5.20;1.00;;;;;;5074292;28;20244;-71
2022/04/05 01:55:48;;;;;;;0.70;0.70;;;5.20;1.00;;;;;;5074123;28;20193;-72
2022/04/05 01:58:14;;;;;;;0.80;0.80;;;5.20;99.90;;;;;;5074395;28;20221;-71
2022/04/05 02:00:39;;;;;;;0.80;0.80;;;5.20;1.00;;;;;;5073874;28;20229;-74
2022/04/05 02:03:05;;;;;;;0.70;0.70;;;5.20;1.00;;;;;;5074188;28;20202;-72
2022/04/05 02:05:30;;;;;;;0.90;0.90;;;5.20;1.00;;;;;;5074340;28;20210;-72
2022/04/05 02:07:56;;;;;;;0.90;0.90;;;5.20;1.00;;;;;;5074016;28;20170;-71
2022/04/05 02:10:21;;;;;;;0.80;0.80;;;5.20;1.00;;;;;;5073335;28;20198;-72
2022/04/05 02:12:47;;;;;;;0.80;0.80;;;5.20;99.90;;;;;;5074352;28;20174;-72
2022/04/05 02:15:13;;;;;;;0.80;0.80;;;5.20;1.00;;;;;;5074033;28;20210;-72
2022/04/05 02:17:38;;;;;;;0.80;0.80;;;5.10;99.90;;;;;;5073770;28;20639;-72
2022/04/05 02:20:05;;;;;;;0.80;0.80;;;5.10;1.00;;;;;;5073375;28;20201;-72
2022/04/05 02:22:31;;;;;;;0.90;0.90;;;5.10;1.00;;;;;;5073798;28;20570;-71
2022/04/05 02:24:57;;;;;;;0.70;0.70;;;5.10;1.00;;;;;;5074723;28;20663;-72
2022/04/05 02:27:22;;;;;;;0.80;0.80;;;5.20;99.90;;;;;;5074291;28;20189;-73
2022/04/05 02:29:48;;;;;;;0.83;0.83;;;5.10;1.00;;;;;;5074552;28;20178;-72
2022/04/05 02:32:13;;;;;;;0.80;0.80;;;5.10;1.00;;;;;;5074815;28;20204;-72
2022/04/05 02:34:39;;;;;;;0.73;0.73;;;5.10;1.00;;;;;;5073380;28;20214;-72
2022/04/05 02:37:05;;;;;;;0.73;0.73;;;5.10;1.00;;;;;;5073383;28;20655;-72
2022/04/05 02:39:30;;;;;;;0.80;0.80;;;5.10;1.00;;;;;;5072532;28;20678;-72
2022/04/05 02:41:56;;;;;;;0.80;0.80;;;5.10;1.00;;;;;;5073265;28;20179;-72
2022/04/05 02:44:21;;;;;;;0.80;0.80;;;5.10;99.90;;;;;;5073592;28;20189;-72
2022/04/05 02:46:47;;;;;;;0.80;0.80;;;5.10;66.60;;;;;;5073317;28;20185;-72
2022/04/05 02:49:13;;;;;;;0.80;0.80;;;5.10;1.00;;;;;;5072759;28;20654;-72
2022/04/05 02:51:39;;;;;;;0.80;0.80;;;5.00;22.20;;;;;;5072827;28;20195;-72
2022/04/05 02:54:05;;;;;;;0.90;0.90;;;5.00;1.00;;;;;;5072845;28;20222;-72
2022/04/05 02:56:31;;;;;;;0.70;0.70;;;4.90;1.00;;;;;;5073277;28;20174;-72
2022/04/05 02:58:57;;;;;;;0.80;0.80;;;4.90;99.90;;;;;;5072326;28;20171;-71
2022/04/05 03:01:23;;;;;;;0.80;0.80;;;5.00;1.00;;;;;;5072418;28;20567;-71
2022/04/05 03:03:48;;;;;;;0.80;0.80;;;5.00;99.90;;;;;;5072856;28;20174;-71
2022/04/05 03:06:17;;;;;;;0.90;0.90;;;5.00;99.90;;;;;;5072897;28;20170;-71
2022/04/05 03:08:42;;;;;;;0.77;0.77;;;5.10;99.90;;;;;;5072621;28;20183;-71
2022/04/05 03:11:08;;;;;;;0.80;0.80;;;5.10;1.00;;;;;;5072410;28;20190;-75
2022/04/05 03:13:33;;;;;;;0.87;0.87;;;5.10;99.90;;;;;;5072753;28;20210;-73
2022/04/05 03:15:59;;;;;;;0.77;0.77;;;5.10;99.90;;;;;;5072815;28;20175;-73
2022/04/05 03:18:25;;;;;;;0.80;0.80;;;5.10;99.90;;;;;;5072682;28;20305;-72
2022/04/05 03:20:51;;;;;;;0.73;0.73;;;5.10;1.00;;;;;;5072190;28;20205;-73
2022/04/05 03:23:17;;;;;;;0.80;0.80;;;5.10;99.90;;;;;;5072626;28;20178;-73
2022/04/05 03:25:43;;;;;;;0.70;0.70;;;5.10;1.00;;;;;;5072746;28;20177;-73
2022/04/05 03:28:08;;;;;;;0.80;0.80;;;5.10;1.00;;;;;;5072592;28;20188;-72
2022/04/05 03:30:34;;;;;;;0.90;0.90;;;5.10;99.90;;;;;;5071915;28;20690;-73
2022/04/05 03:32:59;;;;;;;0.70;0.70;;;5.10;99.90;;;;;;5072181;28;20190;-71
2022/04/05 03:35:25;;;;;;;0.70;0.70;;;5.20;99.90;;;;;;5072304;28;20689;-74
2022/04/05 03:37:52;;;;;;;0.80;0.80;;;5.20;1.00;;;;;;5072188;28;20177;-74
2022/04/05 03:40:17;;;;;;;0.80;0.80;;;5.10;1.00;;;;;;5071461;28;20218;-71
2022/04/05 03:42:43;;;;;;;0.83;0.83;;;5.10;99.90;;;;;;5072134;28;20181;-72
2022/04/05 03:45:09;;;;;;;0.80;0.80;;;5.00;99.90;;;;;;5072041;28;20177;-74
2022/04/05 03:47:34;;;;;;;0.80;0.80;;;5.00;99.90;;;;;;5071953;28;20179;-74
2022/04/05 03:50:00;;;;;;;0.80;0.80;;;5.00;6.80;;;;;;5071190;28;20559;-71
2022/04/05 03:52:26;;;;;;;0.70;0.70;;;4.90;1.00;;;;;;5071782;28;20201;-74
2022/04/05 03:54:51;;;;;;;0.80;0.80;;;4.90;1.00;;;;;;5072045;28;20253;-73
2022/04/05 03:57:17;;;;;;;0.70;0.70;;;4.80;1.00;;;;;;5072011;28;20174;-72
2022/04/05 03:59:42;;;;;;;0.70;0.70;;;4.80;99.90;;;;;;5071358;28;20175;-71
2022/04/05 04:02:08;;;;;;;0.80;0.80;;;4.80;99.90;;;;;;5071657;28;20238;-72
2022/04/05 04:04:34;;;;;;;0.70;0.70;;;4.80;1.00;;;;;;5071849;28;20178;-72
2022/04/05 04:06:59;;;;;;;0.70;0.70;;;4.70;1.00;;;;;;5071507;28;20197;-72
2022/04/05 04:09:25;;;;;;;0.80;0.80;;;4.70;99.90;;;;;;5053219;28;20551;-72
2022/04/05 04:11:50;;;;;;;0.80;0.80;;;4.80;99.90;;;;;;5071051;28;20316;-72
2022/04/05 04:14:16;;;;;;;0.70;0.70;;;4.80;99.90;;;;;;5071638;28;20266;-72
2022/04/05 04:16:42;;;;;;;0.80;0.80;;;4.80;99.90;;;;;;5071567;28;20334;-72
2022/04/05 04:19:08;;;;;;;0.87;0.87;;;4.80;1.00;;;;;;5070930;28;20639;-72
2022/04/05 04:21:33;;;;;;;0.80;0.80;;;4.90;1.00;;;;;;5071461;28;20198;-71
2022/04/05 04:23:59;;;;;;;0.97;0.97;;;4.90;1.00;;;;;;5071202;28;20243;-72
2022/04/05 04:26:25;;;;;;;0.80;0.80;;;4.90;1.00;;;;;;5071231;28;20311;-72
2022/04/05 04:28:53;;;;;;;0.80;0.80;;;5.00;1.00;;;;;;5071210;28;20174;-72
2022/04/05 04:31:19;;;;;;;0.80;0.80;;;5.00;27.90;;;;;;5071008;28;20281;-72
2022/04/05 04:33:44;;;;;;;0.90;0.90;;;5.00;1.00;;;;;;5071185;28;20297;-72
2022/04/05 04:36:10;;;;;;;0.90;0.90;;;5.00;1.00;;;;;;5070931;28;20265;-72
2022/04/05 04:38:36;;;;;;;0.80;0.80;;;5.00;1.00;;;;;;5071439;28;20198;-72
2022/04/05 04:41:01;;;;;;;0.90;0.90;;;5.00;1.00;;;;;;5070647;28;20217;-72
2022/04/05 04:43:27;;;;;;;0.80;0.80;;;4.90;1.00;;;;;;5071397;28;20257;-72
2022/04/05 04:45:54;;;;;;;0.70;0.70;;;4.90;99.90;;;;;;5071089;28;20326;-72
2022/04/05 04:48:20;;;;;;;0.80;0.80;;;4.90;1.00;;;;;;5071437;28;20202;-72
2022/04/05 04:50:46;;;;;;;0.80;0.80;;;4.90;99.90;;;;;;5070435;28;20232;-72
2022/04/05 04:53:12;;;;;;;0.80;0.80;;;4.80;1.00;;;;;;5071100;28;20182;-72
2022/04/05 04:55:37;;;;;;;0.80;0.80;;;4.80;99.90;;;;;;5071155;28;20240;-71
2022/04/05 04:58:03;;;;;;;0.80;0.80;;;4.80;1.00;;;;;;5071116;28;20247;-71
2022/04/05 05:00:29;;;;;;;0.80;0.80;;;4.80;96.90;;;;;;5070554;28;20197;-72
2022/04/05 05:02:54;;;;;;;0.90;0.90;;;4.70;99.90;;;;;;5070990;28;20185;-72
2022/04/05 05:05:21;;;;;;;0.90;0.90;;;4.70;38.70;;;;;;5070743;28;20171;-72
2022/04/05 05:07:48;;;;;;;0.80;0.80;;;4.80;99.90;;;;;;5070949;28;20538;-72
2022/04/05 05:10:15;;;;;;;0.90;0.90;;;4.80;99.90;;;;;;5070578;28;20190;-71
2022/04/05 05:12:41;;;;;;;0.70;0.70;;;4.70;99.90;;;;;;5070755;28;20312;-72
2022/04/05 05:15:18;;;;;;;0.80;0.80;;;4.80;1.00;;;;;;5070649;28;20591;-72
2022/04/05 05:17:45;;;;;;;0.70;0.70;;;4.70;76.90;;;;;;5071015;28;20317;-71
2022/04/05 05:20:12;;;;;;;0.80;0.80;;;4.70;99.90;;;;;;5070171;28;20194;-71
2022/04/05 05:22:39;;;;;;;0.80;0.80;;;4.60;1.00;;;;;;5071162;28;20179;-75
2022/04/05 05:25:06;;;;;;;0.80;0.80;;;4.70;99.90;;;;;;5075189;28;20909;-72
2022/04/05 05:27:31;;;;;;;0.90;0.90;;;4.70;1.00;;;;;;5075262;28;20244;-72
2022/04/05 05:29:57;;;;;;;0.80;0.80;;;4.70;1.00;;;;;;5074386;28;20186;-72
2022/04/05 05:32:23;;;;;;;0.80;0.80;;;4.70;1.00;;;;;;5075298;28;20569;-72
2022/04/05 05:34:48;;;;;;;0.70;0.70;;;4.70;1.00;;;;;;5074746;28;20701;-72
2022/04/05 05:37:14;;;;;;;0.70;0.70;;;4.70;99.90;;;;;;5078089;28;20186;-75
2022/04/05 05:39:40;;;;;;;0.70;0.70;;;4.80;99.90;;;;;;5071018;28;20194;-72
2022/04/05 05:42:06;;;;;;;0.80;0.80;;;4.70;1.00;;;;;;5074432;28;20261;-72
2022/04/05 05:44:33;;;;;;;0.80;0.80;;;4.80;1.00;;;;;;5074007;28;20178;-73
2022/04/05 05:46:59;;;;;;;0.70;0.70;;;4.80;99.90;;;;;;5074063;28;20223;-72
2022/04/05 05:49:24;;;;;;;0.77;0.77;;;4.80;1.00;;;;;;5073652;28;20190;-73
2022/04/05 05:51:50;;;;;;;0.90;0.90;;;4.80;1.00;;;;;;5068106;28;20247;-73
2022/04/05 05:54:17;;;;;;;0.80;0.80;;;4.70;1.00;;;;;;5074565;28;20218;-73
2022/04/05 05:56:42;;;;;;;0.70;0.70;;;4.80;1.00;;;;;;5073883;28;20681;-72
2022/04/05 05:59:09;;;;;;;0.80;0.80;;;4.80;99.90;;;;;;5073733;28;20209;-73
2022/04/05 06:01:35;;;;;;;0.80;0.80;;;4.90;99.90;;;;;;5073952;28;20539;-73
2022/04/05 06:04:00;;;;;;;0.90;0.90;;;4.80;99.90;;;;;;5074349;28;20192;-72
2022/04/05 06:06:28;;;;;;;0.70;0.70;;;4.80;1.00;;;;;;5074267;28;20606;-72
2022/04/05 06:08:55;;;;;;;0.70;0.70;;;4.80;1.00;;;;;;5073643;28;20209;-73
2022/04/05 06:11:21;;;;;;;0.87;0.87;;;4.80;1.00;;;;;;5073829;28;20206;-72
2022/04/05 06:13:46;;;;;;;0.80;0.80;;;4.80;1.00;;;;;;5073828;28;20214;-72
2022/04/05 06:16:14;;;;;;;0.70;0.70;;;4.80;1.00;;;;;;5074076;28;20588;-74
2022/04/05 06:18:40;;;;;;;0.80;0.80;;;4.90;1.00;;;;;;5071420;28;20577;-71
2022/04/05 06:21:06;;;;;;;0.80;0.80;;;4.90;1.00;;;;;;5068588;28;20206;-72
2022/04/05 06:23:31;;;;;;;0.80;0.80;;;4.90;1.00;;;;;;5070036;28;20712;-72
2022/04/05 06:25:57;;;;;;;0.80;0.80;;;4.90;1.00;;;;;;5071129;28;20553;-72
2022/04/05 06:28:22;;;;;;;0.80;0.80;;;4.90;1.00;;;;;;5073689;28;20171;-73
2022/04/05 06:30:48;;;;;;;0.90;0.90;;;4.90;1.00;;;;;;5071554;28;20198;-72
2022/04/05 06:33:20;;;;;;;0.70;0.70;;;4.90;1.00;;;;;;5080450;28;20178;-72
2022/04/05 06:35:59;;;;;;;0.70;0.70;;;4.90;99.90;;;;;;5074137;28;20194;-71
2022/04/05 06:38:26;;;;;;;0.80;0.80;;;5.00;99.90;;;;;;5166646;22;20186;-75
2022/04/05 06:40:54;;;;;;;0.73;0.73;;;4.90;1.00;;;;;;5052996;28;20238;-74
2022/04/05 06:43:21;;;;;;;0.80;0.80;;;5.00;1.00;;;;;;5053336;28;20179;-75
2022/04/05 06:45:47;;;;;;;0.80;0.80;;;5.00;1.00;;;;;;5053536;28;20671;-77
2022/04/05 06:48:13;;;;;;;0.80;0.80;;;5.00;1.00;;;;;;5053578;28;20328;-74
2022/04/05 06:50:39;;;;;;;0.80;0.80;;;5.00;1.00;;;;;;5052615;28;20735;-76
2022/04/05 06:53:07;;;;;;;0.83;0.83;;;5.00;1.00;;;;;;5053508;28;20265;-75
2022/04/05 06:55:33;;;;;;;0.90;0.90;;;5.10;1.00;;;;;;5053003;28;20214;-73
2022/04/05 06:57:58;;;;;;;0.80;0.80;;;5.10;1.00;;;;;;5053140;28;20515;-73
2022/04/05 07:00:25;;;;;;;0.80;0.80;;;5.10;1.00;;;;;;5052452;28;20281;-72
2022/04/05 07:02:53;;;;;;;0.80;0.80;;;5.10;1.00;;;;;;5053186;28;20171;-72
2022/04/05 07:05:19;;;;;;;0.77;0.77;;;5.10;1.00;;;;;;5035123;28;20198;-72
2022/04/05 07:07:45;;;;;;;0.73;0.73;;;5.20;1.00;;;;;;5053017;28;20620;-72
2022/04/05 07:10:14;;;;;;;0.80;0.80;;;5.20;99.90;;;;;;5052497;28;20203;-73
2022/04/05 07:12:40;;;;;;;0.70;0.70;;;5.30;1.00;;;;;;5034531;28;20633;-72
2022/04/05 07:15:07;;;;;;;0.80;0.80;;;5.30;99.90;;;;;;5052536;28;20211;-73
2022/04/05 07:17:33;;;;;;;0.83;0.83;;;5.30;1.00;;;;;;5052442;28;20179;-74
2022/04/05 07:19:59;;;;;;;0.70;0.70;;;5.40;99.90;;;;;;5051038;28;20202;-73
2022/04/05 07:22:26;;;;;;;0.80;0.80;;;5.40;1.00;;;;;;5052217;28;20174;-73
2022/04/05 07:24:52;;;;;;;0.77;0.77;;;5.30;1.00;;;;;;5052472;28;20639;-73
2022/04/05 07:27:17;;;;;;;0.70;0.70;;;5.30;1.00;;;;;;5052172;28;20179;-73
2022/04/05 07:29:43;;;;;;;0.70;0.70;;;5.40;99.90;;;;;;5051759;28;20178;-73
2022/04/05 07:32:09;;;;;;;0.80;0.80;;;5.40;99.90;;;;;;5052419;28;20179;-72
2022/04/05 07:34:34;;;;;;;0.80;0.80;;;5.40;99.90;;;;;;5052109;28;20286;-72
2022/04/05 07:37:00;;;;;;;0.70;0.70;;;5.50;1.00;;;;;;5052381;28;20175;-73
2022/04/05 07:39:26;;;;;;;0.80;0.80;;;5.50;1.00;;;;;;5054298;28;20198;-73
2022/04/05 07:41:52;;;;;;;0.80;0.80;;;5.50;1.80;;;;;;5051768;28;20210;-74
2022/04/05 07:44:18;;;;;;;0.80;0.80;;;5.60;1.00;;;;;;5053778;28;20657;-73
2022/04/05 07:46:44;;;;;;;0.70;0.70;;;5.60;99.90;;;;;;5052192;28;20187;-72
2022/04/05 07:49:10;;;;;;;0.80;0.80;;;5.60;58.90;;;;;;5051502;28;20704;-74
2022/04/05 07:51:36;;;;;;;0.70;0.70;;;5.70;4.70;;;;;;5051862;28;20195;-74
2022/04/05 07:54:02;;;;;;;0.80;0.80;;;5.70;1.00;;;;;;5051849;28;20297;-73
2022/04/05 07:56:27;;;;;;;0.80;0.80;;;5.80;99.90;;;;;;5051755;28;20686;-73
2022/04/05 07:58:53;;;;;;;0.80;0.80;;;5.80;1.00;;;;;;5051372;28;20206;-73
2022/04/05 08:01:18;;;;;;;0.70;0.70;;;5.80;1.00;;;;;;5056607;28;20191;-74
2022/04/05 08:03:44;;;;;;;0.70;0.70;;;5.90;99.90;;;;;;5051879;28;20167;-74
2022/04/05 08:06:10;;;;;;;0.80;0.80;;;5.90;99.90;;;;;;5032894;28;20210;-73
2022/04/05 08:08:35;;;;;;;0.70;0.70;;;6.00;1.00;;;;;;5048999;28;20228;-73
2022/04/05 08:11:01;;;;;;;0.70;0.70;;;6.00;1.00;;;;;;5054615;28;20688;-73
2022/04/05 08:13:27;;;;;;;0.80;0.80;;;6.00;1.00;;;;;;5050655;28;20547;-73
2022/04/05 08:15:53;;;;;;;0.80;0.80;;;6.10;1.00;;;;;;5051748;28;20265;-72
2022/04/05 08:18:20;;;;;;;0.80;0.80;;;6.10;84.60;;;;;;5051584;28;20764;-73
2022/04/05 08:20:45;;;;;;;0.80;0.80;;;6.30;99.90;;;;;;5050920;28;20233;-73
2022/04/05 08:23:11;;;;;;;0.80;0.80;;;6.40;1.00;;;;;;5051462;28;20213;-73
2022/04/05 08:25:37;;;;;;;0.70;0.70;;;6.40;1.00;;;;;;5050513;28;20263;-73
2022/04/05 08:28:04;;;;;;;0.80;0.80;;;6.60;1.00;;;;;;5047545;28;20190;-73
2022/04/05 08:30:30;;;;;;;0.80;0.80;;;6.60;99.90;;;;;;5047501;28;20263;-72
2022/04/05 08:32:56;;;;;;;0.70;0.70;;;6.70;1.00;;;;;;5049700;28;20174;-75
2022/04/05 08:35:22;;;;;;;0.80;0.80;;;6.70;26.40;;;;;;5036136;28;20226;-74
2022/04/05 08:37:50;;;;;;;0.70;0.70;;;6.80;99.90;;;;;;5050570;28;20720;-73
2022/04/05 08:40:17;;;;;;;0.70;0.70;;;6.80;1.00;;;;;;5049870;28;20238;-73
2022/04/05 08:42:46;;;;;;;0.70;0.70;;;6.80;1.00;;;;;;5051008;28;20183;-74
2022/04/05 08:45:13;;;;;;;0.70;0.70;;;6.80;1.00;;;;;;5050333;28;20187;-74
2022/04/05 08:47:48;;;;;;;0.70;0.70;;;6.90;99.90;;;;;;5050872;28;20195;-73
2022/04/05 08:50:16;;;;;;;0.73;0.73;;;6.90;99.90;;;;;;5050533;28;20547;-73
2022/04/05 08:52:43;;;;;;;0.70;0.70;;;6.80;99.90;;;;;;5055511;28;20277;-73
2022/04/05 08:55:09;;;;;;;0.80;0.80;;;6.80;1.00;;;;;;5053281;28;20276;-73
2022/04/05 08:57:34;;;;;;;0.70;0.70;;;6.70;1.00;;;;;;5051306;28;20212;-73
2022/04/05 09:00:03;;;;;;;0.80;0.80;;;6.70;1.00;;;;;;5056660;28;20198;-71
2022/04/05 09:02:29;;;;;;;0.70;0.70;;;6.70;1.00;;;;;;5056977;28;20187;-74
2022/04/05 09:04:54;;;;;;;0.83;0.83;;;6.70;1.00;;;;;;5057077;28;20698;-73
2022/04/05 09:07:28;;;;;;;0.70;0.70;;;6.80;75.80;;;;;;5057515;28;20559;-73
2022/04/05 09:10:16;;;;;;;0.73;0.73;;;6.80;1.00;;;;;;5056671;28;20207;-73
2022/04/05 09:12:49;;;;;;;0.70;0.70;;;6.90;99.90;;;;;;5055299;28;20650;-73
2022/04/05 09:15:20;;;;;;;0.70;0.70;;;7.00;99.90;;;;;;5054622;28;20206;-73
2022/04/05 09:17:47;;;;;;;0.80;0.80;;;7.10;42.60;;;;;;5061239;28;20174;-73
2022/04/05 09:20:14;;;;;;;0.80;0.80;;;7.10;99.90;;;;;;5056148;28;20650;-73
2022/04/05 09:22:40;;;;;;;0.80;0.80;;;7.10;1.00;;;;;;5055717;28;20179;-73
2022/04/05 09:25:15;;;;;;;0.80;0.80;;;7.10;1.00;;;;;;5057606;28;20267;-74
2022/04/05 09:27:51;;;;;;;0.70;0.70;;;7.20;2.40;;;;;;5058189;28;20269;-76
2022/04/05 09:30:19;;;;;;;0.80;0.80;;;7.20;99.90;;;;;;5062065;28;20259;-75
2022/04/05 09:32:48;;;;;;;0.80;0.80;;;7.30;1.00;;;;;;5077217;28;20175;-74
2022/04/05 09:35:19;;;;;;;0.70;0.70;;;7.30;1.00;;;;;;5070692;28;20215;-74
2022/04/05 09:37:46;;;;;;;0.80;0.80;;;7.30;14.60;;;;;;5054777;28;20687;-74
2022/04/05 09:40:35;;;;;;;0.70;0.70;;;7.30;99.90;;;;;;5051593;28;20645;-74
2022/04/05 09:43:13;;;;;;;0.73;0.73;;;7.40;99.90;;;;;;5057265;28;20240;-74
2022/04/05 09:45:48;;;;;;;0.80;0.80;;;7.50;99.90;;;;;;5055802;28;20186;-75
2022/04/05 09:48:16;;;;;;;0.70;0.70;;;7.50;1.00;;;;;;5050285;28;20190;-74
2022/04/05 09:51:11;;;;;;;0.77;0.77;;;7.40;64.90;;;;;;5054232;28;20370;-74
2022/04/05 09:53:40;;;;;;;0.70;0.70;;;7.50;99.90;;;;;;5039003;28;20179;-74
2022/04/05 09:56:07;;;;;;;0.60;0.60;;;7.50;1.00;;;;;;5056574;28;20585;-75
2022/04/05 09:58:33;;;;;;;0.70;0.70;;;7.50;98.70;;;;;;5076422;28;20186;-74
2022/04/05 10:01:11;;;;;;;0.70;0.70;;;7.50;1.00;;;;;;5076618;28;20221;-75
2022/04/05 10:03:42;;;;;;;0.70;0.70;;;7.50;99.90;;;;;;5077237;28;20192;-74
2022/04/05 10:06:08;;;;;;;0.80;0.80;;;7.60;1.00;;;;;;5077121;28;20174;-74
2022/04/05 10:08:37;;;;;;;0.77;0.77;;;7.60;1.00;;;;;;5077372;28;20178;-74
2022/04/05 10:11:04;;;;;;;0.70;0.70;;;7.80;1.00;;;;;;5067107;28;20199;-74
2022/04/05 10:13:30;;;;;;;0.70;0.70;;;7.90;1.00;;;;;;5053650;28;20543;-74
2022/04/05 10:15:57;;;;;;;0.70;0.70;;;8.00;15.20;;;;;;5054518;28;20594;-74
2022/04/05 10:18:25;;;;;;;0.70;0.70;;;8.10;99.90;;;;;;5052358;28;20179;-74
2022/04/05 10:20:51;;;;;;;0.80;0.80;;;7.90;1.00;;;;;;5053115;28;20187;-75
2022/04/05 10:23:22;;;;;;;0.80;0.80;;;8.00;1.00;;;;;;5053604;28;20186;-74
2022/04/05 10:25:51;;;;;;;0.80;0.80;;;7.90;1.00;;;;;;5053525;28;20171;-75
2022/04/05 10:28:21;;;;;;;0.80;0.80;;;8.00;1.00;;;;;;5053427;28;20175;-75
2022/04/05 10:31:14;;;;;;;0.63;0.63;;;8.10;99.90;;;;;;5053045;28;20210;-75
2022/04/05 10:33:52;;;;;;;0.80;0.80;;;8.20;1.00;;;;;;5053957;28;20187;-74
2022/04/05 10:36:25;;;;;;;0.90;0.90;;;8.20;1.00;;;;;;5053322;28;20248;-74
2022/04/05 10:39:12;;;;;;;0.77;0.77;;;8.30;1.00;;;;;;5051578;28;20611;-74
2022/04/05 10:41:37;;;;;;;0.70;0.70;;;8.30;1.00;;;;;;5048343;28;20675;-73
2022/04/05 10:44:23;;;;;;;0.70;0.70;;;8.30;1.00;;;;;;5051575;28;20233;-73
2022/04/05 10:46:58;;;;;;;0.70;0.70;;;8.60;99.90;;;;;;5051909;28;20187;-74
2022/04/05 10:49:42;;;;;;;0.70;0.70;;;8.30;99.90;;;;;;5050841;28;20179;-73
2022/04/05 10:52:18;;;;;;;0.70;0.70;;;8.20;1.00;;;;;;5053106;28;20191;-74
2022/04/05 10:54:43;;;;;;;0.70;0.70;;;8.20;1.00;;;;;;5052898;28;20297;-75
2022/04/05 10:57:27;;;;;;;0.80;0.80;;;8.20;1.00;;;;;;5053006;28;20583;-75
2022/04/05 11:00:01;;;;;;;0.60;0.60;;;8.40;1.00;;;;;;5052839;28;20215;-73
2022/04/05 11:02:45;;;;;;;0.70;0.70;;;8.40;99.90;;;;;;5047950;28;20183;-75
2022/04/05 11:05:18;;;;;;;0.70;0.70;;;8.50;99.90;;;;;;5049183;28;20179;-74
2022/04/05 11:07:59;;;;;;;0.73;0.73;;;8.80;1.00;;;;;;5052765;28;20170;-74
2022/04/05 11:10:37;;;;;;;0.70;0.70;;;8.70;99.90;;;;;;5057371;28;20205;-74
2022/04/05 11:13:08;;;;;;;0.77;0.77;;;8.70;1.00;;;;;;5072991;28;20192;-76
2022/04/05 11:15:46;;;;;;;0.60;0.60;;;8.60;45.50;;;;;;5072783;28;20691;-75
2022/04/05 11:18:16;;;;;;;0.70;0.70;;;8.60;1.00;;;;;;5067391;28;20188;-75
2022/04/05 11:20:43;;;;;;;0.70;0.70;;;8.70;1.00;;;;;;5052290;28;20286;-74
2022/04/05 11:23:10;;;;;;;0.73;0.73;;;8.90;1.00;;;;;;5052750;28;20198;-74
2022/04/05 11:25:36;;;;;;;0.60;0.60;;;9.00;99.90;;;;;;5052300;28;20731;-75
2022/04/05 11:28:15;;;;;;;0.70;0.70;;;8.70;1.00;;;;;;5053057;28;20274;-75
2022/04/05 11:31:02;;;;;;;0.70;0.70;;;8.90;99.90;;;;;;5053100;28;20321;-76
2022/04/05 11:33:33;;;;;;;0.70;0.70;;;8.90;1.00;;;;;;5072401;28;20179;-73
2022/04/05 11:36:02;;;;;;;0.67;0.67;;;9.00;1.00;;;;;;5054164;28;20175;-73
2022/04/05 11:38:31;;;;;;;0.70;0.70;;;9.00;99.90;;;;;;5056538;28;20175;-74
2022/04/05 11:41:19;;;;;;;0.70;0.70;;;9.00;99.90;;;;;;5044264;28;20285;-76
2022/04/05 11:43:47;;;;;;;0.70;0.70;;;8.90;1.00;;;;;;5052299;28;20695;-74
2022/04/05 11:46:15;;;;;;;0.80;0.80;;;8.90;99.90;;;;;;5052971;28;20530;-74
2022/04/05 11:48:52;;;;;;;0.60;0.60;;;8.70;99.90;;;;;;5051149;28;20179;-75
2022/04/05 11:51:24;;;;;;;0.67;0.67;;;8.70;99.90;;;;;;5051540;28;20194;-75
2022/04/05 11:53:50;;;;;;;0.70;0.70;;;8.60;99.90;;;;;;5052156;28;20206;-73
2022/04/05 11:56:24;;;;;;;0.70;0.70;;;8.50;1.00;;;;;;5052392;28;20183;-74
2022/04/05 11:58:52;;;;;;;0.70;0.70;;;8.60;1.00;;;;;;5051636;28;20191;-73
2022/04/05 12:01:29;;;;;;;0.60;0.60;;;8.50;1.00;;;;;;5051541;28;20203;-74
2022/04/05 12:04:04;;;;;;;0.70;0.70;;;8.50;1.00;;;;;;5051758;28;20179;-74
2022/04/05 12:06:32;;;;;;;0.70;0.70;;;8.60;1.00;;;;;;5051595;28;20630;-74
2022/04/05 12:09:01;;;;;;;0.67;0.67;;;8.60;1.00;;;;;;5051557;28;20182;-75
2022/04/05 12:11:30;;;;;;;1.00;1.00;;;8.60;99.90;;;;;;5040281;28;20219;-74
2022/04/05 12:13:59;;;;;;;0.70;0.70;;;8.60;1.00;;;;;;5046279;28;20219;-73
2022/04/05 12:16:27;;;;;;;0.70;0.70;;;8.70;1.00;;;;;;5051756;28;20171;-75
2022/04/05 12:18:54;;;;;;;0.70;0.70;;;8.80;1.00;;;;;;5050837;28;20182;-76
2022/04/05 12:21:22;;;;;;;0.70;0.70;;;8.70;99.90;;;;;;5051702;28;20203;-73
2022/04/05 12:23:49;;;;;;;0.80;0.80;;;8.70;1.00;;;;;;5051866;28;20194;-74
2022/04/05 12:26:16;;;;;;;0.70;0.70;;;8.90;1.00;;;;;;5033465;28;20176;-75
2022/04/05 12:28:57;;;;;;;0.70;0.70;;;9.00;99.90;;;;;;5051730;28;20535;-74
2022/04/05 12:31:31;;;;;;;0.60;0.60;;;9.00;99.90;;;;;;5051686;28;20619;-75
2022/04/05 12:33:58;;;;;;;0.60;0.60;;;9.00;99.90;;;;;;5050625;28;20226;-73
2022/04/05 12:36:30;;;;;;;0.70;0.70;;;9.10;1.00;;;;;;5051975;28;20246;-74
2022/04/05 12:38:56;;;;;;;0.80;0.80;;;9.00;1.00;;;;;;5052254;28;20310;-74
2022/04/05 12:41:21;;;;;;;0.70;0.70;;;8.90;99.90;;;;;;5054346;28;20194;-74
2022/04/05 12:44:06;;;;;;;0.60;0.60;;;9.00;1.00;;;;;;5051756;28;20419;-73
2022/04/05 12:46:37;;;;;;;0.80;0.80;;;9.10;1.00;;;;;;5052470;28;20266;-73
2022/04/05 12:49:21;;;;;;;0.70;0.70;;;9.30;1.00;;;;;;5052276;28;20205;-73
2022/04/05 12:51:48;;;;;;;0.70;0.70;;;9.30;1.00;;;;;;5061702;28;20288;-74
2022/04/05 12:54:28;;;;;;;0.60;0.60;;;9.50;1.00;;;;;;5051727;28;20214;-74
2022/04/05 12:57:34;;;;;;;0.70;0.70;;;9.50;99.90;;;;;;5050997;28;20175;-75
2022/04/05 13:00:24;;;;;;;0.60;0.60;;;9.50;99.90;;;;;;5050471;28;20244;-74
2022/04/05 13:03:11;;;;;;;0.67;0.67;;;9.60;1.00;;;;;;5032696;28;20242;-75
2022/04/05 13:08:33;;;;;;;0.60;0.60;;;10.00;99.90;;;;;;5049155;28;20277;-75
2022/04/05 13:10:59;;;;;;;0.50;0.50;;;10.30;99.90;;;;;;5047759;28;20207;-74